Terminal Aerodrome Forecast
Issued by NWS Boston, MA

Home | Current Version | Previous Version | Text Only | Print | Product List | Glossary On
Versions: 1 2 3 4 5 6 7 8 9 10 11 12 13 14 15 16 17 18 19 20 21
000
FTUS41 KBOX 282339
TAFBDL
TAF
KBDL 282339Z 2900/3006 16009KT P6SM FEW050 BKN080
     FM290900 00000KT P6SM SCT100
     FM291000 00000KT 5SM BR SCT080
     FM291100 00000KT P6SM BKN070
     FM292000 18008KT P6SM FEW150
     FM300300 18006KT P6SM BKN040
     FM300400 18006KT P6SM VCSH BKN035=

USA.gov is the U.S. government's official web portal to all federal, state and local government web resources and services.